createdAt,value
2023-08-11T00:00:22.729Z,2.50
2023-08-11T00:02:52.100Z,2.47
2023-08-11T00:05:20.708Z,2.22
2023-08-11T00:07:52.173Z,2.10
2023-08-11T00:10:20.944Z,2.50
2023-08-11T00:12:49.210Z,2.50
2023-08-11T00:15:17.854Z,2.10
2023-08-11T00:17:45.915Z,2.65
2023-08-11T00:20:13.548Z,2.38
2023-08-11T00:22:41.126Z,2.28
2023-08-11T00:25:09.298Z,2.47
2023-08-11T00:27:36.987Z,2.53
2023-08-11T00:30:06.516Z,2.70
2023-08-11T00:32:34.224Z,2.65
2023-08-11T00:35:01.832Z,2.80
2023-08-11T00:37:29.913Z,2.60
2023-08-11T00:39:57.592Z,2.50
2023-08-11T00:42:25.335Z,2.67
2023-08-11T00:44:53.317Z,2.40
2023-08-11T00:47:21.498Z,2.40
2023-08-11T00:49:50.284Z,2.58
2023-08-11T00:52:18.881Z,2.55
2023-08-11T00:54:48.215Z,2.40
2023-08-11T00:57:16.279Z,2.35
2023-08-11T00:59:43.988Z,2.53
2023-08-11T01:02:12.358Z,2.50
2023-08-11T01:04:41.185Z,2.40
2023-08-11T01:07:29.558Z,2.45
2023-08-11T01:10:05.027Z,2.70
2023-08-11T01:12:43.793Z,2.47
2023-08-11T01:15:30.722Z,2.58
2023-08-11T01:17:58.894Z,2.40
2023-08-11T01:20:27.452Z,2.50
2023-08-11T01:22:58.801Z,2.60
2023-08-11T01:25:26.758Z,2.55
2023-08-11T01:27:56.595Z,2.30
2023-08-11T01:30:25.169Z,2.35
2023-08-11T01:32:53.258Z,2.10
2023-08-11T01:35:33.721Z,2.30
2023-08-11T01:38:06.511Z,2.33
2023-08-11T01:40:34.156Z,2.50
2023-08-11T01:43:03.196Z,2.20
2023-08-11T01:45:31.011Z,2.45
2023-08-11T01:47:59.798Z,2.20
2023-08-11T01:50:29.522Z,2.28
2023-08-11T01:52:57.346Z,2.35
2023-08-11T01:55:26.213Z,2.40
2023-08-11T01:57:59.481Z,2.58
2023-08-11T02:00:29.641Z,2.30
2023-08-11T02:02:59.163Z,2.17
2023-08-11T02:05:27.482Z,2.25
2023-08-11T02:07:57.120Z,2.40
2023-08-11T02:10:25.266Z,2.10
2023-08-11T02:12:52.904Z,2.20
2023-08-11T02:15:20.716Z,1.95
2023-08-11T02:17:50.052Z,2.10
2023-08-11T02:20:25.072Z,2.28
2023-08-11T02:25:21.425Z,2.47
2023-08-11T02:27:49.033Z,2.40
2023-08-11T02:30:16.605Z,2.40
2023-08-11T02:32:46.938Z,2.63
2023-08-11T02:35:18.494Z,2.70
2023-08-11T02:37:46.628Z,2.58
2023-08-11T02:40:15.634Z,2.83
2023-08-11T02:42:49.727Z,2.67
2023-08-11T02:45:17.424Z,2.50
2023-08-11T02:47:45.181Z,2.90
2023-08-11T02:50:14.441Z,3.10
2023-08-11T02:52:42.265Z,2.95
2023-08-11T02:55:10.179Z,2.50
2023-08-11T02:57:38.070Z,2.60
2023-08-11T03:00:16.497Z,2.70
2023-08-11T03:02:47.582Z,2.60
2023-08-11T03:05:16.718Z,2.70
2023-08-11T03:07:45.773Z,2.70
2023-08-11T03:10:13.968Z,3.00
2023-08-11T03:12:44.065Z,2.88
2023-08-11T03:15:11.941Z,3.00
2023-08-11T03:17:40.084Z,2.80
2023-08-11T03:20:14.533Z,2.67
2023-08-11T03:22:44.892Z,2.65
2023-08-11T03:25:14.002Z,2.80
2023-08-11T03:27:44.354Z,3.10
2023-08-11T03:30:16.670Z,2.97
2023-08-11T03:32:49.524Z,2.90
2023-08-11T03:35:19.369Z,2.72
2023-08-11T03:37:49.811Z,2.70
2023-08-11T03:40:18.073Z,2.90
2023-08-11T03:42:51.469Z,2.60
2023-08-11T03:45:19.190Z,2.63
2023-08-11T03:47:46.894Z,2.78
2023-08-11T03:50:20.826Z,2.85
2023-08-11T03:52:48.930Z,2.70
2023-08-11T03:55:16.769Z,2.75
2023-08-11T03:57:46.902Z,2.70
2023-08-11T04:00:20.867Z,2.57
2023-08-11T04:02:58.721Z,2.80
2023-08-11T04:05:26.487Z,2.95
2023-08-11T04:07:54.730Z,2.72
2023-08-11T04:10:22.313Z,2.70
2023-08-11T04:12:49.979Z,2.20
2023-08-11T04:15:17.891Z,2.40
2023-08-11T04:17:45.573Z,2.40
2023-08-11T04:20:16.282Z,2.13
2023-08-11T04:22:44.173Z,2.72
2023-08-11T04:25:13.555Z,2.55
2023-08-11T04:27:44.934Z,2.70
2023-08-11T04:30:13.518Z,2.60
2023-08-11T04:32:44.654Z,2.90
2023-08-11T04:35:12.902Z,2.72
2023-08-11T04:37:42.427Z,2.63
2023-08-11T04:40:12.329Z,2.88
2023-08-11T04:42:42.172Z,2.80
2023-08-11T04:45:13.217Z,2.55
2023-08-11T04:47:42.006Z,3.08
2023-08-11T04:50:13.163Z,2.90
2023-08-11T04:52:41.870Z,2.60
2023-08-11T04:55:11.781Z,3.00
2023-08-11T04:57:39.409Z,2.83
2023-08-11T05:00:11.448Z,3.47
2023-08-11T05:02:39.095Z,2.92
2023-08-11T05:05:07.012Z,2.88
2023-08-11T05:07:34.745Z,2.88
2023-08-11T05:10:02.430Z,2.63
2023-08-11T05:12:30.827Z,2.63
2023-08-11T05:14:58.497Z,2.80
2023-08-11T05:17:26.129Z,2.60
2023-08-11T05:19:53.924Z,2.50
2023-08-11T05:22:21.550Z,2.40
2023-08-11T05:24:49.194Z,2.40
2023-08-11T05:27:17.016Z,2.47
2023-08-11T05:29:47.649Z,2.50
2023-08-11T05:32:15.275Z,2.40
2023-08-11T05:34:43.510Z,2.70
2023-08-11T05:37:11.511Z,2.65
2023-08-11T05:39:42.648Z,2.60
2023-08-11T05:42:10.617Z,3.10
2023-08-11T05:44:38.221Z,4.38
2023-08-11T05:47:07.483Z,4.35
2023-08-11T05:49:35.427Z,4.53
2023-08-11T05:52:02.988Z,5.00
2023-08-11T05:54:30.798Z,4.97
2023-08-11T05:56:58.942Z,5.80
2023-08-11T05:59:27.614Z,5.53
2023-08-11T06:01:55.250Z,5.30
2023-08-11T06:04:22.954Z,5.65
2023-08-11T06:06:50.662Z,5.18
2023-08-11T06:09:18.338Z,4.75
2023-08-11T06:11:46.423Z,4.53
2023-08-11T06:14:14.059Z,4.22
2023-08-11T06:16:41.654Z,3.50
2023-08-11T06:19:09.312Z,3.40
2023-08-11T06:21:36.946Z,3.53
2023-08-11T06:24:04.780Z,3.55
2023-08-11T06:26:32.826Z,3.80
2023-08-11T06:29:00.569Z,3.20
2023-08-11T06:31:30.716Z,3.20
2023-08-11T06:33:58.544Z,3.60
2023-08-11T06:36:27.193Z,3.90
2023-08-11T06:38:54.805Z,3.92
2023-08-11T06:41:22.426Z,3.15
2023-08-11T06:43:50.035Z,4.43
2023-08-11T06:46:17.921Z,4.00
2023-08-11T06:48:45.913Z,3.50
2023-08-11T06:51:13.523Z,3.80
2023-08-11T06:53:41.179Z,3.00
2023-08-11T06:56:08.775Z,3.00
2023-08-11T06:58:36.478Z,2.80
2023-08-11T07:01:04.569Z,3.05
2023-08-11T07:03:34.493Z,3.30
2023-08-11T07:06:03.475Z,2.83
2023-08-11T07:08:31.776Z,3.17
2023-08-11T07:10:59.399Z,3.30
2023-08-11T07:13:26.993Z,3.75
2023-08-11T07:15:58.075Z,3.33
2023-08-11T07:18:25.906Z,3.25
2023-08-11T07:20:54.914Z,2.80
2023-08-11T07:23:23.747Z,2.90
2023-08-11T07:25:51.446Z,2.70
2023-08-11T07:28:19.178Z,3.33
2023-08-11T07:30:47.387Z,2.90
2023-08-11T07:33:15.524Z,2.50
2023-08-11T07:35:43.323Z,2.10
2023-08-11T07:38:12.700Z,2.33
2023-08-11T07:40:41.100Z,2.25
2023-08-11T07:43:08.666Z,1.80
2023-08-11T07:45:36.375Z,2.00
2023-08-11T07:48:04.425Z,1.63
2023-08-11T07:50:32.116Z,1.70
2023-08-11T07:53:00.406Z,2.00
2023-08-11T07:55:28.003Z,1.80
2023-08-11T07:57:55.671Z,1.92
2023-08-11T08:00:26.260Z,1.90
2023-08-11T08:02:54.627Z,1.80
2023-08-11T08:05:22.713Z,2.10
2023-08-11T08:07:50.404Z,2.40
2023-08-11T08:10:18.102Z,2.08
2023-08-11T08:12:47.087Z,2.03
2023-08-11T08:15:15.756Z,2.20
2023-08-11T08:17:43.692Z,1.77
2023-08-11T08:20:14.991Z,2.20
2023-08-11T08:22:43.291Z,2.10
2023-08-11T08:25:11.284Z,2.00
2023-08-11T08:27:40.356Z,2.25
2023-08-11T08:30:10.599Z,1.88
2023-08-11T08:32:39.000Z,2.20
2023-08-11T08:35:08.493Z,2.13
2023-08-11T08:37:36.594Z,2.65
2023-08-11T08:40:05.362Z,2.00
2023-08-11T08:42:33.070Z,2.13
2023-08-11T08:45:01.238Z,1.98
2023-08-11T08:47:29.286Z,1.90
2023-08-11T08:49:57.931Z,1.70
2023-08-11T08:52:25.831Z,2.20
2023-08-11T08:54:53.591Z,1.98
2023-08-11T08:57:23.173Z,2.25
2023-08-11T08:59:50.894Z,1.73
2023-08-11T09:02:19.123Z,1.90
2023-08-11T09:04:47.790Z,1.77
2023-08-11T09:07:18.344Z,1.83
2023-08-11T09:09:48.093Z,1.83
2023-08-11T09:12:15.954Z,2.28
2023-08-11T09:14:43.951Z,1.85
2023-08-11T09:17:12.244Z,1.80
2023-08-11T09:19:40.229Z,1.60
2023-08-11T09:22:11.927Z,2.03
2023-08-11T09:24:41.806Z,2.47
2023-08-11T09:27:09.653Z,2.40
2023-08-11T09:29:38.342Z,1.92
2023-08-11T09:32:06.015Z,1.88
2023-08-11T09:34:34.853Z,1.65
2023-08-11T09:37:02.569Z,2.35
2023-08-11T09:39:30.639Z,2.20
2023-08-11T09:41:58.318Z,2.03
2023-08-11T09:44:27.070Z,2.22
2023-08-11T09:46:55.013Z,2.40
2023-08-11T09:49:22.802Z,2.03
2023-08-11T09:51:51.933Z,2.40
2023-08-11T09:54:20.256Z,2.42
2023-08-11T09:56:47.954Z,2.10
2023-08-11T09:59:22.554Z,2.30
2023-08-11T10:01:53.653Z,2.30
2023-08-11T10:04:32.218Z,2.50
2023-08-11T10:07:01.063Z,2.15
2023-08-11T10:09:30.560Z,2.25
2023-08-11T10:11:59.603Z,2.50
2023-08-11T10:14:27.811Z,2.40
2023-08-11T10:16:55.864Z,2.42
2023-08-11T10:19:24.136Z,2.63
2023-08-11T10:21:51.802Z,2.20
2023-08-11T10:24:19.897Z,2.72
2023-08-11T10:26:48.046Z,2.47
2023-08-11T10:29:16.458Z,2.33
2023-08-11T10:31:58.909Z,2.30
2023-08-11T10:34:27.254Z,2.65
2023-08-11T10:36:58.573Z,2.63
2023-08-11T10:39:27.523Z,2.20
2023-08-11T10:41:56.863Z,2.92
2023-08-11T10:44:28.920Z,2.28
2023-08-11T10:47:00.253Z,2.20
2023-08-11T10:49:35.643Z,2.30
2023-08-11T10:52:04.911Z,2.33
2023-08-11T10:54:35.489Z,2.38
2023-08-11T10:57:05.838Z,2.40
2023-08-11T10:59:35.747Z,2.20
2023-08-11T11:02:03.944Z,2.15
2023-08-11T11:04:32.911Z,2.50
2023-08-11T11:07:02.323Z,2.28
2023-08-11T11:09:30.535Z,2.15
2023-08-11T11:11:58.823Z,2.20
2023-08-11T11:14:30.184Z,2.10
2023-08-11T11:17:00.655Z,2.00
2023-08-11T11:19:29.439Z,2.03
2023-08-11T11:21:57.555Z,2.53
2023-08-11T11:24:26.513Z,2.25
2023-08-11T11:26:54.353Z,2.40
2023-08-11T11:29:25.544Z,2.20
2023-08-11T11:31:53.669Z,2.40
2023-08-11T11:34:21.829Z,2.25
2023-08-11T11:36:49.969Z,2.60
2023-08-11T11:39:17.737Z,2.35
2023-08-11T11:41:45.392Z,2.50
2023-08-11T11:44:13.040Z,2.80
2023-08-11T11:46:41.201Z,2.15
2023-08-11T11:49:19.483Z,2.22
2023-08-11T11:51:56.612Z,2.30
2023-08-11T11:54:24.743Z,2.13
2023-08-11T11:57:03.534Z,2.42
2023-08-11T11:59:33.582Z,2.40
2023-08-11T12:02:04.999Z,2.05
2023-08-11T12:04:33.446Z,2.50
2023-08-11T12:07:02.876Z,2.50
2023-08-11T12:09:30.562Z,2.47
2023-08-11T12:11:58.185Z,2.47
2023-08-11T12:14:29.192Z,2.30
2023-08-11T12:16:59.974Z,2.38
2023-08-11T12:19:27.565Z,2.83
2023-08-11T12:21:55.139Z,2.40
2023-08-11T12:24:23.765Z,2.30
2023-08-11T12:26:51.483Z,2.40
2023-08-11T12:29:19.107Z,2.83
2023-08-11T12:31:46.806Z,2.47
2023-08-11T12:34:14.409Z,2.28
2023-08-11T12:36:42.140Z,2.45
2023-08-11T12:39:10.147Z,2.78
2023-08-11T12:41:40.088Z,2.30
2023-08-11T12:44:07.933Z,2.00
2023-08-11T12:46:37.299Z,2.20
2023-08-11T12:49:05.246Z,2.58
2023-08-11T12:51:32.915Z,2.75
2023-08-11T12:54:00.592Z,2.08
2023-08-11T12:56:28.706Z,2.28
2023-08-11T12:58:56.362Z,2.42
2023-08-11T13:01:24.171Z,2.70
2023-08-11T13:03:52.631Z,2.47
2023-08-11T13:06:20.844Z,2.40
2023-08-11T13:08:51.066Z,2.50
2023-08-11T13:11:18.781Z,2.17
2023-08-11T13:13:47.068Z,2.40
2023-08-11T13:16:14.743Z,2.35
2023-08-11T13:18:42.377Z,2.38
2023-08-11T13:21:09.941Z,2.47
2023-08-11T13:23:37.563Z,1.92
2023-08-11T13:26:05.173Z,2.63
2023-08-11T13:28:32.991Z,2.20
2023-08-11T13:31:00.756Z,2.13
2023-08-11T13:33:28.350Z,2.40
2023-08-11T13:35:56.024Z,2.17
2023-08-11T13:38:23.723Z,2.25
2023-08-11T13:40:52.098Z,2.50
2023-08-11T13:43:20.540Z,2.30
2023-08-11T13:45:48.418Z,2.30
2023-08-11T13:48:20.488Z,2.10
2023-08-11T13:50:49.555Z,2.75
2023-08-11T13:53:17.413Z,2.60
2023-08-11T13:55:45.546Z,2.40
2023-08-11T13:58:14.233Z,2.80
2023-08-11T14:00:41.844Z,2.28
2023-08-11T14:03:09.626Z,2.38
2023-08-11T14:05:37.439Z,2.20
2023-08-11T14:08:05.332Z,2.78
2023-08-11T14:10:33.219Z,2.22
2023-08-11T14:13:01.049Z,2.30
2023-08-11T14:15:28.876Z,2.35
2023-08-11T14:17:56.700Z,2.35
2023-08-11T14:20:24.842Z,2.45
2023-08-11T14:22:52.558Z,2.50
2023-08-11T14:25:20.777Z,2.30
2023-08-11T14:27:48.540Z,2.30
2023-08-11T14:30:16.245Z,2.20
2023-08-11T14:32:44.301Z,2.17
2023-08-11T14:35:12.192Z,2.30
2023-08-11T14:37:39.956Z,2.30
2023-08-11T14:40:08.273Z,2.42
2023-08-11T14:42:37.417Z,2.40
2023-08-11T14:45:05.493Z,2.60
2023-08-11T14:47:33.333Z,2.28
2023-08-11T14:50:01.171Z,2.47
2023-08-11T14:52:28.841Z,2.20
2023-08-11T14:54:56.631Z,2.15
2023-08-11T14:57:24.559Z,1.90
2023-08-11T14:59:52.269Z,2.40
2023-08-11T15:02:19.998Z,2.25
2023-08-11T15:04:47.848Z,2.30
2023-08-11T15:07:15.568Z,2.25
2023-08-11T15:09:43.362Z,2.47
2023-08-11T15:12:11.329Z,2.28
2023-08-11T15:14:42.731Z,2.15
2023-08-11T15:17:10.406Z,2.40
2023-08-11T15:19:37.978Z,1.90
2023-08-11T15:22:05.647Z,2.28
2023-08-11T15:24:33.392Z,2.30
2023-08-11T15:27:01.090Z,2.22
2023-08-11T15:29:28.758Z,2.22
2023-08-11T15:31:56.422Z,2.10
2023-08-11T15:34:27.047Z,2.53
2023-08-11T15:36:54.748Z,2.20
2023-08-11T15:39:22.366Z,2.10
2023-08-11T15:41:50.203Z,2.35
2023-08-11T15:44:19.709Z,1.90
2023-08-11T15:46:49.341Z,1.90
2023-08-11T15:49:16.954Z,2.15
2023-08-11T15:51:44.553Z,2.42
2023-08-11T15:54:12.594Z,2.28
2023-08-11T15:56:40.307Z,2.05
2023-08-11T15:59:08.996Z,2.13
2023-08-11T16:01:36.657Z,2.00
2023-08-11T16:04:04.684Z,2.15
2023-08-11T16:06:32.583Z,2.13
2023-08-11T16:09:00.331Z,2.10
2023-08-11T16:11:28.092Z,2.03
2023-08-11T16:13:56.006Z,1.90
2023-08-11T16:16:23.765Z,2.00
2023-08-11T16:18:51.590Z,2.00
2023-08-11T16:21:19.196Z,2.20
2023-08-11T16:23:49.649Z,2.00
2023-08-11T16:26:42.397Z,2.28
2023-08-11T16:29:12.533Z,2.30
2023-08-11T16:31:40.170Z,2.33
2023-08-11T16:34:07.843Z,2.42
2023-08-11T16:36:35.487Z,2.15
2023-08-11T16:39:03.127Z,2.38
2023-08-11T16:44:36.072Z,2.20
2023-08-11T16:47:03.942Z,2.08
2023-08-11T16:49:31.702Z,2.03
2023-08-11T16:51:59.414Z,2.25
2023-08-11T16:54:27.030Z,2.05
2023-08-11T16:56:54.919Z,2.25
2023-08-11T16:59:23.029Z,2.30
2023-08-11T17:01:50.984Z,2.00
2023-08-11T17:04:18.659Z,2.47
2023-08-11T17:06:49.429Z,1.95
2023-08-11T17:09:18.752Z,2.10
2023-08-11T17:11:46.409Z,2.10
2023-08-11T17:14:14.509Z,2.20
2023-08-11T17:16:42.949Z,2.42
2023-08-11T17:19:13.712Z,2.20
2023-08-11T17:21:43.290Z,2.00
2023-08-11T17:24:11.068Z,2.42
2023-08-11T17:26:40.036Z,2.47
2023-08-11T17:29:25.479Z,2.55
2023-08-11T17:31:54.201Z,2.47
2023-08-11T17:34:21.836Z,2.50
2023-08-11T17:36:50.078Z,2.58
2023-08-11T17:39:17.753Z,2.70
2023-08-11T17:41:48.845Z,2.78
2023-08-11T17:44:16.536Z,2.38
2023-08-11T17:46:44.475Z,2.40
2023-08-11T17:49:12.299Z,2.53
2023-08-11T17:51:40.553Z,2.50
2023-08-11T17:54:10.067Z,2.42
2023-08-11T17:56:38.725Z,2.33
2023-08-11T17:59:06.636Z,2.70
2023-08-11T18:01:36.323Z,2.53
2023-08-11T18:04:07.661Z,2.70
2023-08-11T18:06:37.068Z,2.80
2023-08-11T18:09:05.442Z,3.00
2023-08-11T18:11:34.846Z,2.50
2023-08-11T18:14:02.593Z,2.58
2023-08-11T18:16:30.234Z,2.55
2023-08-11T18:18:57.840Z,2.35
2023-08-11T18:21:25.471Z,2.72
2023-08-11T18:23:53.194Z,2.45
2023-08-11T18:26:21.144Z,2.30
2023-08-11T18:28:48.768Z,2.30
2023-08-11T18:31:16.567Z,2.78
2023-08-11T18:33:44.288Z,2.92
2023-08-11T18:36:12.299Z,2.90
2023-08-11T18:38:39.934Z,2.65
2023-08-11T18:41:07.592Z,2.83
2023-08-11T18:43:38.119Z,2.65
2023-08-11T18:46:08.279Z,2.78
2023-08-11T18:48:36.142Z,2.97
2023-08-11T18:51:03.725Z,3.10
2023-08-11T18:53:31.391Z,2.65
2023-08-11T18:55:59.223Z,2.92
2023-08-11T18:58:27.194Z,3.13
2023-08-11T19:01:07.407Z,3.10
2023-08-11T19:03:37.836Z,2.95
2023-08-11T19:06:05.778Z,3.47
2023-08-11T19:08:33.415Z,3.03
2023-08-11T19:11:01.100Z,3.03
2023-08-11T19:13:28.752Z,2.90
2023-08-11T19:15:56.730Z,3.10
2023-08-11T19:18:24.349Z,3.17
2023-08-11T19:20:52.175Z,3.10
2023-08-11T19:23:19.812Z,2.75
2023-08-11T19:25:47.451Z,2.80
2023-08-11T19:28:15.024Z,2.83
2023-08-11T19:30:42.601Z,2.90
2023-08-11T19:33:10.341Z,3.05
2023-08-11T19:35:37.990Z,3.17
2023-08-11T19:38:06.144Z,3.50
2023-08-11T19:40:33.976Z,3.42
2023-08-11T19:43:02.191Z,3.05
2023-08-11T19:45:29.969Z,3.03
2023-08-11T19:47:57.745Z,3.17
2023-08-11T19:50:25.419Z,3.33
2023-08-11T19:52:53.834Z,2.92
2023-08-11T19:55:21.601Z,3.00
2023-08-11T19:57:49.161Z,3.15
2023-08-11T20:00:16.880Z,2.97
2023-08-11T20:02:44.530Z,3.05
2023-08-11T20:05:12.192Z,2.70
2023-08-11T20:07:39.915Z,2.97
2023-08-11T20:10:07.748Z,3.00
2023-08-11T20:12:35.380Z,2.83
2023-08-11T20:15:03.164Z,2.83
2023-08-11T20:17:30.725Z,2.67
2023-08-11T20:19:58.445Z,3.13
2023-08-11T20:22:26.053Z,2.97
2023-08-11T20:24:53.708Z,2.60
2023-08-11T20:27:23.102Z,2.88
2023-08-11T20:29:50.892Z,3.03
2023-08-11T20:32:18.551Z,2.72
2023-08-11T20:34:46.445Z,2.95
2023-08-11T20:37:15.554Z,2.70
2023-08-11T20:39:43.264Z,2.17
2023-08-11T20:42:10.859Z,2.70
2023-08-11T20:44:38.538Z,2.50
2023-08-11T20:47:06.324Z,2.90
2023-08-11T20:49:33.939Z,2.30
2023-08-11T20:52:01.900Z,2.17
2023-08-11T20:54:29.690Z,2.40
2023-08-11T20:57:00.037Z,2.20
2023-08-11T20:59:28.124Z,2.80
2023-08-11T21:01:58.262Z,2.25
2023-08-11T21:04:26.046Z,2.30
2023-08-11T21:06:55.679Z,3.00
2023-08-11T21:09:23.612Z,2.53
2023-08-11T21:11:51.157Z,2.42
2023-08-11T21:14:18.828Z,2.70
2023-08-11T21:16:47.950Z,2.67
2023-08-11T21:19:15.626Z,2.72
2023-08-11T21:21:43.301Z,2.80
2023-08-11T21:24:10.913Z,2.22
2023-08-11T21:26:38.557Z,2.35
2023-08-11T21:29:07.495Z,2.95
2023-08-11T21:31:35.128Z,2.20
2023-08-11T21:34:06.346Z,2.42
2023-08-11T21:36:37.659Z,2.47
2023-08-11T21:39:06.485Z,2.20
2023-08-11T21:41:35.159Z,2.42
2023-08-11T21:44:03.185Z,2.65
2023-08-11T21:46:31.696Z,2.45
2023-08-11T21:48:59.747Z,2.33
2023-08-11T21:51:27.639Z,2.47
2023-08-11T21:53:55.641Z,2.63
2023-08-11T21:56:23.229Z,2.80
2023-08-11T21:58:50.836Z,2.28
2023-08-11T22:01:18.465Z,2.40
2023-08-11T22:03:46.168Z,1.98
2023-08-11T22:06:14.867Z,2.20
2023-08-11T22:08:42.715Z,2.33
2023-08-11T22:11:22.151Z,2.15
2023-08-11T22:13:54.482Z,2.60
2023-08-11T22:16:22.276Z,2.10
2023-08-11T22:18:49.906Z,2.92
2023-08-11T22:21:17.569Z,2.50
2023-08-11T22:23:45.209Z,2.30
2023-08-11T22:26:12.873Z,2.25
2023-08-11T22:28:40.761Z,2.58
2023-08-11T22:31:08.482Z,2.35
2023-08-11T22:33:36.226Z,2.60
2023-08-11T22:36:03.888Z,2.30
2023-08-11T22:38:31.806Z,2.50
2023-08-11T22:40:59.391Z,2.30
2023-08-11T22:43:30.320Z,2.17
2023-08-11T22:45:58.033Z,2.10
2023-08-11T22:48:25.926Z,2.45
2023-08-11T22:50:53.720Z,2.33
2023-08-11T22:53:21.570Z,2.33
2023-08-11T22:55:49.157Z,2.50
2023-08-11T22:58:16.892Z,2.58
2023-08-11T23:00:44.473Z,2.55
2023-08-11T23:03:12.078Z,2.38
2023-08-11T23:05:39.777Z,2.40
2023-08-11T23:08:07.484Z,2.40
2023-08-11T23:10:35.514Z,2.28
2023-08-11T23:13:05.569Z,2.78
2023-08-11T23:15:33.180Z,2.70
2023-08-11T23:18:00.928Z,2.30
2023-08-11T23:20:28.524Z,2.42
2023-08-11T23:22:56.090Z,2.13
2023-08-11T23:25:23.649Z,2.50
2023-08-11T23:27:51.364Z,2.55
2023-08-11T23:30:19.057Z,2.40
2023-08-11T23:32:46.686Z,2.30
2023-08-11T23:35:14.281Z,2.17
2023-08-11T23:37:41.964Z,2.28
2023-08-11T23:40:09.878Z,2.28
2023-08-11T23:42:37.489Z,2.42
2023-08-11T23:45:07.534Z,2.47
2023-08-11T23:47:35.441Z,2.13
2023-08-11T23:50:03.169Z,2.03
2023-08-11T23:52:33.908Z,2.20
2023-08-11T23:55:06.830Z,2.05
2023-08-11T23:57:36.850Z,1.88
